sensor_id;sensor_type;location;lat;lon;timestamp;pressure;altitude;pressure_sealevel;temperature
15360;BMP280;7779;49.596;11.070;2023-08-31T00:00:43;97623.63;;;18.05
15360;BMP280;7779;49.596;11.070;2023-08-31T00:03:11;97621.06;;;18.04
15360;BMP280;7779;49.596;11.070;2023-08-31T00:05:45;97621.06;;;18.04
15360;BMP280;7779;49.596;11.070;2023-08-31T00:08:12;97619.38;;;18.03
15360;BMP280;7779;49.596;11.070;2023-08-31T00:10:38;97632.03;;;18.01
15360;BMP280;7779;49.596;11.070;2023-08-31T00:13:04;97617.66;;;18.02
15360;BMP280;7779;49.596;11.070;2023-08-31T00:15:32;97621.84;;;18.00
15360;BMP280;7779;49.596;11.070;2023-08-31T00:17:59;97606.63;;;17.98
15360;BMP280;7779;49.596;11.070;2023-08-31T00:20:25;97605.78;;;17.98
15360;BMP280;7779;49.596;11.070;2023-08-31T00:22:52;97608.31;;;17.98
15360;BMP280;7779;49.596;11.070;2023-08-31T00:25:18;97623.53;;;17.99
15360;BMP280;7779;49.596;11.070;2023-08-31T00:27:44;97610.91;;;18.01
15360;BMP280;7779;49.596;11.070;2023-08-31T00:30:14;97606.69;;;18.01
15360;BMP280;7779;49.596;11.070;2023-08-31T00:32:41;97600.75;;;18.02
15360;BMP280;7779;49.596;11.070;2023-08-31T00:35:09;97599.09;;;18.03
15360;BMP280;7779;49.596;11.070;2023-08-31T00:37:35;97591.50;;;18.03
15360;BMP280;7779;49.596;11.070;2023-08-31T00:40:01;97587.25;;;18.02
15360;BMP280;7779;49.596;11.070;2023-08-31T00:42:30;97597.38;;;18.02
15360;BMP280;7779;49.596;11.070;2023-08-31T00:44:56;97598.22;;;18.02
15360;BMP280;7779;49.596;11.070;2023-08-31T00:47:22;97598.25;;;18.04
15360;BMP280;7779;49.596;11.070;2023-08-31T00:49:48;97602.50;;;18.05
15360;BMP280;7779;49.596;11.070;2023-08-31T00:52:15;97605.91;;;18.07
15360;BMP280;7779;49.596;11.070;2023-08-31T00:54:41;97611.91;;;18.09
15360;BMP280;7779;49.596;11.070;2023-08-31T00:57:10;97617.84;;;18.11
15360;BMP280;7779;49.596;11.070;2023-08-31T00:59:36;97619.56;;;18.12
15360;BMP280;7779;49.596;11.070;2023-08-31T01:02:24;97625.53;;;18.15
15360;BMP280;7779;49.596;11.070;2023-08-31T01:05:25;97629.72;;;18.15
15360;BMP280;7779;49.596;11.070;2023-08-31T01:08:11;97626.38;;;18.16
15360;BMP280;7779;49.596;11.070;2023-08-31T01:11:00;97629.78;;;18.18
15360;BMP280;7779;49.596;11.070;2023-08-31T01:13:31;97629.78;;;18.18
15360;BMP280;7779;49.596;11.070;2023-08-31T01:16:03;97622.22;;;18.19
15360;BMP280;7779;49.596;11.070;2023-08-31T01:18:32;97623.06;;;18.20
15360;BMP280;7779;49.596;11.070;2023-08-31T01:21:11;97632.38;;;18.22
15360;BMP280;7779;49.596;11.070;2023-08-31T01:23:55;97640.00;;;18.24
15360;BMP280;7779;49.596;11.070;2023-08-31T01:26:23;97643.34;;;18.20
15360;BMP280;7779;49.596;11.070;2023-08-31T01:28:50;97644.22;;;18.22
15360;BMP280;7779;49.596;11.070;2023-08-31T01:31:17;97636.56;;;18.20
15360;BMP280;7779;49.596;11.070;2023-08-31T01:33:43;97639.97;;;18.19
15360;BMP280;7779;49.596;11.070;2023-08-31T01:36:23;97643.34;;;18.20
15360;BMP280;7779;49.596;11.070;2023-08-31T01:39:09;97641.63;;;18.19
15360;BMP280;7779;49.596;11.070;2023-08-31T01:41:39;97638.19;;;18.17
15360;BMP280;7779;49.596;11.070;2023-08-31T01:44:08;97639.06;;;18.16
15360;BMP280;7779;49.596;11.070;2023-08-31T01:46:37;97643.22;;;18.12
15360;BMP280;7779;49.596;11.070;2023-08-31T01:49:04;97638.19;;;18.14
15360;BMP280;7779;49.596;11.070;2023-08-31T01:51:31;97651.66;;;18.13
15360;BMP280;7779;49.596;11.070;2023-08-31T01:53:57;97643.19;;;18.11
15360;BMP280;7779;49.596;11.070;2023-08-31T01:56:24;97646.50;;;18.08
15360;BMP280;7779;49.596;11.070;2023-08-31T01:58:50;97642.25;;;18.07
15360;BMP280;7779;49.596;11.070;2023-08-31T02:01:15;97649.91;;;18.09
15360;BMP280;7779;49.596;11.070;2023-08-31T02:03:41;97649.09;;;18.10
15360;BMP280;7779;49.596;11.070;2023-08-31T02:06:07;97653.28;;;18.09
15360;BMP280;7779;49.596;11.070;2023-08-31T02:08:33;97651.63;;;18.10
15360;BMP280;7779;49.596;11.070;2023-08-31T02:10:58;97644.84;;;18.09
15360;BMP280;7779;49.596;11.070;2023-08-31T02:13:24;97653.28;;;18.09
15360;BMP280;7779;49.596;11.070;2023-08-31T02:15:53;97656.72;;;18.10
15360;BMP280;7779;49.596;11.070;2023-08-31T02:18:19;97666.84;;;18.10
15360;BMP280;7779;49.596;11.070;2023-08-31T02:20:45;97657.56;;;18.10
15360;BMP280;7779;49.596;11.070;2023-08-31T02:23:11;97658.38;;;18.09
15360;BMP280;7779;49.596;11.070;2023-08-31T02:25:38;97663.38;;;18.08
15360;BMP280;7779;49.596;11.070;2023-08-31T02:28:04;97665.03;;;18.06
15360;BMP280;7779;49.596;11.070;2023-08-31T02:30:30;97670.06;;;18.03
15360;BMP280;7779;49.596;11.070;2023-08-31T02:32:56;97668.34;;;18.02
15360;BMP280;7779;49.596;11.070;2023-08-31T02:35:22;97670.00;;;18.00
15360;BMP280;7779;49.596;11.070;2023-08-31T02:37:48;97667.41;;;17.96
15360;BMP280;7779;49.596;11.070;2023-08-31T02:40:14;97670.69;;;17.92
15360;BMP280;7779;49.596;11.070;2023-08-31T02:42:41;97671.44;;;17.86
15360;BMP280;7779;49.596;11.070;2023-08-31T02:45:07;97663.81;;;17.83
15360;BMP280;7779;49.596;11.070;2023-08-31T02:47:33;97662.03;;;17.79
15360;BMP280;7779;49.596;11.070;2023-08-31T02:49:58;97658.56;;;17.74
15360;BMP280;7779;49.596;11.070;2023-08-31T02:52:25;97659.31;;;17.69
15360;BMP280;7779;49.596;11.070;2023-08-31T02:54:51;97660.06;;;17.63
15360;BMP280;7779;49.596;11.070;2023-08-31T02:57:17;97658.25;;;17.57
15360;BMP280;7779;49.596;11.070;2023-08-31T02:59:49;97660.69;;;17.51
15360;BMP280;7779;49.596;11.070;2023-08-31T03:02:15;97658.84;;;17.44
15360;BMP280;7779;49.596;11.070;2023-08-31T03:04:41;97656.19;;;17.38
15360;BMP280;7779;49.596;11.070;2023-08-31T03:07:07;97658.69;;;17.35
15360;BMP280;7779;49.596;11.070;2023-08-31T03:09:32;97665.31;;;17.30
15360;BMP280;7779;49.596;11.070;2023-08-31T03:11:58;97669.50;;;17.28
15360;BMP280;7779;49.596;11.070;2023-08-31T03:14:24;97666.84;;;17.22
15360;BMP280;7779;49.596;11.070;2023-08-31T03:16:49;97676.91;;;17.19
15360;BMP280;7779;49.596;11.070;2023-08-31T03:19:15;97675.91;;;17.14
15360;BMP280;7779;49.596;11.070;2023-08-31T03:21:41;97677.50;;;17.08
15360;BMP280;7779;49.596;11.070;2023-08-31T03:24:13;97679.06;;;17.03
15360;BMP280;7779;49.596;11.070;2023-08-31T03:26:39;97689.91;;;16.97
15360;BMP280;7779;49.596;11.070;2023-08-31T03:29:05;97685.59;;;16.92
15360;BMP280;7779;49.596;11.070;2023-08-31T03:31:30;97691.38;;;16.86
15360;BMP280;7779;49.596;11.070;2023-08-31T03:33:57;97699.72;;;16.82
15360;BMP280;7779;49.596;11.070;2023-08-31T03:36:23;97701.28;;;16.78
15360;BMP280;7779;49.596;11.070;2023-08-31T03:38:49;97702.84;;;16.73
15360;BMP280;7779;49.596;11.070;2023-08-31T03:41:15;97709.47;;;16.68
15360;BMP280;7779;49.596;11.070;2023-08-31T03:43:41;97708.53;;;16.63
15360;BMP280;7779;49.596;11.070;2023-08-31T03:46:06;97715.16;;;16.58
15360;BMP280;7779;49.596;11.070;2023-08-31T03:48:32;97710.81;;;16.52
15360;BMP280;7779;49.596;11.070;2023-08-31T03:50:58;97720.81;;;16.48
15360;BMP280;7779;49.596;11.070;2023-08-31T03:53:24;97725.72;;;16.42
15360;BMP280;7779;49.596;11.070;2023-08-31T03:55:54;97727.28;;;16.37
15360;BMP280;7779;49.596;11.070;2023-08-31T03:58:22;97737.28;;;16.33
15360;BMP280;7779;49.596;11.070;2023-08-31T04:00:51;97734.63;;;16.27
15360;BMP280;7779;49.596;11.070;2023-08-31T04:03:18;97737.84;;;16.21
15360;BMP280;7779;49.596;11.070;2023-08-31T04:05:43;97737.66;;;16.15
15360;BMP280;7779;49.596;11.070;2023-08-31T04:08:12;97745.97;;;16.11
15360;BMP280;7779;49.596;11.070;2023-08-31T04:10:38;97749.16;;;16.04
15360;BMP280;7779;49.596;11.070;2023-08-31T04:13:03;97759.16;;;16.00
15360;BMP280;7779;49.596;11.070;2023-08-31T04:15:29;97753.06;;;15.94
15360;BMP280;7779;49.596;11.070;2023-08-31T04:17:56;97761.41;;;15.90
15360;BMP280;7779;49.596;11.070;2023-08-31T04:20:22;97761.28;;;15.85
15360;BMP280;7779;49.596;11.070;2023-08-31T04:22:48;97772.09;;;15.81
15360;BMP280;7779;49.596;11.070;2023-08-31T04:25:14;97770.31;;;15.77
15360;BMP280;7779;49.596;11.070;2023-08-31T04:27:39;97775.25;;;15.73
15360;BMP280;7779;49.596;11.070;2023-08-31T04:30:06;97788.63;;;15.70
15360;BMP280;7779;49.596;11.070;2023-08-31T04:32:36;97791.09;;;15.67
15360;BMP280;7779;49.596;11.070;2023-08-31T04:35:03;97788.56;;;15.67
15360;BMP280;7779;49.596;11.070;2023-08-31T04:37:33;97800.38;;;15.68
15360;BMP280;7779;49.596;11.070;2023-08-31T04:39:59;97801.94;;;15.65
15360;BMP280;7779;49.596;11.070;2023-08-31T04:42:25;97801.09;;;15.64
15360;BMP280;7779;49.596;11.070;2023-08-31T04:44:51;97796.88;;;15.63
15360;BMP280;7779;49.596;11.070;2023-08-31T04:47:16;97800.22;;;15.63
15360;BMP280;7779;49.596;11.070;2023-08-31T04:49:42;97806.09;;;15.63
15360;BMP280;7779;49.596;11.070;2023-08-31T04:52:08;97809.53;;;15.65
15360;BMP280;7779;49.596;11.070;2023-08-31T04:54:34;97812.88;;;15.64
15360;BMP280;7779;49.596;11.070;2023-08-31T04:56:59;97815.34;;;15.63
15360;BMP280;7779;49.596;11.070;2023-08-31T04:59:25;97820.47;;;15.64
15360;BMP280;7779;49.596;11.070;2023-08-31T05:01:51;97817.94;;;15.64
15360;BMP280;7779;49.596;11.070;2023-08-31T05:04:16;97825.47;;;15.63
15360;BMP280;7779;49.596;11.070;2023-08-31T05:06:42;97825.56;;;15.65
15360;BMP280;7779;49.596;11.070;2023-08-31T05:09:08;97828.09;;;15.67
15360;BMP280;7779;49.596;11.070;2023-08-31T05:11:35;97833.34;;;15.73
15360;BMP280;7779;49.596;11.070;2023-08-31T05:14:01;97834.34;;;15.78
15360;BMP280;7779;49.596;11.070;2023-08-31T05:16:27;97845.50;;;15.86
15360;BMP280;7779;49.596;11.070;2023-08-31T05:18:52;97838.13;;;15.93
15360;BMP280;7779;49.596;11.070;2023-08-31T05:21:18;97845.16;;;16.03
15360;BMP280;7779;49.596;11.070;2023-08-31T05:23:44;97847.94;;;16.13
15360;BMP280;7779;49.596;11.070;2023-08-31T05:26:09;97842.38;;;16.23
15360;BMP280;7779;49.596;11.070;2023-08-31T05:28:35;97855.28;;;16.34
15360;BMP280;7779;49.596;11.070;2023-08-31T05:31:02;97858.03;;;16.42
15360;BMP280;7779;49.596;11.070;2023-08-31T05:33:30;97858.25;;;16.50
15360;BMP280;7779;49.596;11.070;2023-08-31T05:36:01;97851.69;;;16.58
15360;BMP280;7779;49.596;11.070;2023-08-31T05:38:29;97846.88;;;16.67
15360;BMP280;7779;49.596;11.070;2023-08-31T05:41:03;97855.50;;;16.75
15360;BMP280;7779;49.596;11.070;2023-08-31T05:43:29;97852.25;;;16.80
15360;BMP280;7779;49.596;11.070;2023-08-31T05:45:54;97854.91;;;16.84
15360;BMP280;7779;49.596;11.070;2023-08-31T05:48:20;97845.72;;;16.88
15360;BMP280;7779;49.596;11.070;2023-08-31T05:50:46;97850.00;;;16.90
15360;BMP280;7779;49.596;11.070;2023-08-31T05:53:11;97854.25;;;16.93
15360;BMP280;7779;49.596;11.070;2023-08-31T05:55:37;97858.56;;;16.95
15360;BMP280;7779;49.596;11.070;2023-08-31T05:58:03;97854.38;;;16.97
15360;BMP280;7779;49.596;11.070;2023-08-31T06:00:29;97859.53;;;17.02
15360;BMP280;7779;49.596;11.070;2023-08-31T06:02:54;97863.00;;;17.05
15360;BMP280;7779;49.596;11.070;2023-08-31T06:05:20;97863.16;;;17.11
15360;BMP280;7779;49.596;11.070;2023-08-31T06:07:46;97866.63;;;17.16
15360;BMP280;7779;49.596;11.070;2023-08-31T06:10:11;97861.72;;;17.21
15360;BMP280;7779;49.596;11.070;2023-08-31T06:12:38;97862.69;;;17.25
15360;BMP280;7779;49.596;11.070;2023-08-31T06:15:05;97860.28;;;17.31
15360;BMP280;7779;49.596;11.070;2023-08-31T06:17:31;97862.19;;;17.41
15360;BMP280;7779;49.596;11.070;2023-08-31T06:19:56;97861.59;;;17.51
15360;BMP280;7779;49.596;11.070;2023-08-31T06:22:22;97857.63;;;17.63
15360;BMP280;7779;49.596;11.070;2023-08-31T06:24:50;97863.03;;;17.78
15360;BMP280;7779;49.596;11.070;2023-08-31T06:27:16;97865.06;;;17.94
15360;BMP280;7779;49.596;11.070;2023-08-31T06:29:43;97856.97;;;18.10
15360;BMP280;7779;49.596;11.070;2023-08-31T06:32:09;97857.28;;;18.26
15360;BMP280;7779;49.596;11.070;2023-08-31T06:34:34;97867.72;;;18.42
15360;BMP280;7779;49.596;11.070;2023-08-31T06:37:00;97867.13;;;18.55
15360;BMP280;7779;49.596;11.070;2023-08-31T06:39:27;97863.97;;;18.68
15360;BMP280;7779;49.596;11.070;2023-08-31T06:41:53;97869.22;;;18.80
15360;BMP280;7779;49.596;11.070;2023-08-31T06:44:29;97862.72;;;18.94
15360;BMP280;7779;49.596;11.070;2023-08-31T06:46:55;97866.28;;;19.03
15360;BMP280;7779;49.596;11.070;2023-08-31T06:49:22;97862.22;;;19.13
15360;BMP280;7779;49.596;11.070;2023-08-31T06:51:49;97868.28;;;19.22
15360;BMP280;7779;49.596;11.070;2023-08-31T06:54:14;97877.72;;;19.30
15360;BMP280;7779;49.596;11.070;2023-08-31T06:56:40;97871.09;;;19.40
15360;BMP280;7779;49.596;11.070;2023-08-31T06:59:06;97873.78;;;19.50
15360;BMP280;7779;49.596;11.070;2023-08-31T07:01:32;97875.56;;;19.57
15360;BMP280;7779;49.596;11.070;2023-08-31T07:04:00;97883.31;;;19.66
15360;BMP280;7779;49.596;11.070;2023-08-31T07:06:26;97884.28;;;19.74
15360;BMP280;7779;49.596;11.070;2023-08-31T07:08:52;97891.22;;;19.84
15360;BMP280;7779;49.596;11.070;2023-08-31T07:11:18;97893.06;;;19.94
15360;BMP280;7779;49.596;11.070;2023-08-31T07:13:44;97897.44;;;20.03
15360;BMP280;7779;49.596;11.070;2023-08-31T07:16:10;97894.97;;;20.11
15360;BMP280;7779;49.596;11.070;2023-08-31T07:18:36;97890.81;;;20.17
15360;BMP280;7779;49.596;11.070;2023-08-31T07:21:02;97896.81;;;20.22
15360;BMP280;7779;49.596;11.070;2023-08-31T07:23:30;97897.72;;;20.27
15360;BMP280;7779;49.596;11.070;2023-08-31T07:25:59;97896.06;;;20.31
15360;BMP280;7779;49.596;11.070;2023-08-31T07:28:30;97900.41;;;20.39
15360;BMP280;7779;49.596;11.070;2023-08-31T07:31:03;97907.25;;;20.47
15360;BMP280;7779;49.596;11.070;2023-08-31T07:33:31;97903.09;;;20.54
15360;BMP280;7779;49.596;11.070;2023-08-31T07:35:58;97910.88;;;20.63
15360;BMP280;7779;49.596;11.070;2023-08-31T07:38:25;97904.16;;;20.68
15360;BMP280;7779;49.596;11.070;2023-08-31T07:40:51;97907.63;;;20.76
15360;BMP280;7779;49.596;11.070;2023-08-31T07:43:17;97908.56;;;20.83
15360;BMP280;7779;49.596;11.070;2023-08-31T07:45:43;97899.28;;;20.91
15360;BMP280;7779;49.596;11.070;2023-08-31T07:48:08;97904.50;;;21.03
15360;BMP280;7779;49.596;11.070;2023-08-31T07:50:34;97918.13;;;21.11
15360;BMP280;7779;49.596;11.070;2023-08-31T07:53:00;97920.72;;;21.17
15360;BMP280;7779;49.596;11.070;2023-08-31T07:55:26;97912.31;;;21.24
15360;BMP280;7779;49.596;11.070;2023-08-31T07:57:51;97915.75;;;21.30
15360;BMP280;7779;49.596;11.070;2023-08-31T08:00:18;97920.94;;;21.39
15360;BMP280;7779;49.596;11.070;2023-08-31T08:02:45;97925.25;;;21.48
15360;BMP280;7779;49.596;11.070;2023-08-31T08:05:12;97925.28;;;21.54
15360;BMP280;7779;49.596;11.070;2023-08-31T08:07:37;97923.63;;;21.58
15360;BMP280;7779;49.596;11.070;2023-08-31T08:10:03;97924.50;;;21.62
15360;BMP280;7779;49.596;11.070;2023-08-31T08:12:42;97933.03;;;21.64
15360;BMP280;7779;49.596;11.070;2023-08-31T08:15:12;97931.31;;;21.61
15360;BMP280;7779;49.596;11.070;2023-08-31T08:17:38;97940.66;;;21.59
15360;BMP280;7779;49.596;11.070;2023-08-31T08:20:06;97945.75;;;21.59
15360;BMP280;7779;49.596;11.070;2023-08-31T08:22:32;97948.25;;;21.55
15360;BMP280;7779;49.596;11.070;2023-08-31T08:24:58;97942.28;;;21.52
15360;BMP280;7779;49.596;11.070;2023-08-31T08:27:24;97949.13;;;21.56
15360;BMP280;7779;49.596;11.070;2023-08-31T08:29:50;97942.34;;;21.59
15360;BMP280;7779;49.596;11.070;2023-08-31T08:32:15;97952.56;;;21.63
15360;BMP280;7779;49.596;11.070;2023-08-31T08:34:41;97946.66;;;21.64
15360;BMP280;7779;49.596;11.070;2023-08-31T08:37:07;97950.88;;;21.65
15360;BMP280;7779;49.596;11.070;2023-08-31T08:39:32;97944.13;;;21.73
15360;BMP280;7779;49.596;11.070;2023-08-31T08:41:59;97937.38;;;21.78
15360;BMP280;7779;49.596;11.070;2023-08-31T08:44:32;97941.66;;;21.85
15360;BMP280;7779;49.596;11.070;2023-08-31T08:47:02;97943.38;;;21.89
15360;BMP280;7779;49.596;11.070;2023-08-31T08:49:30;97953.63;;;21.92
15360;BMP280;7779;49.596;11.070;2023-08-31T08:51:58;97947.66;;;21.93
15360;BMP280;7779;49.596;11.070;2023-08-31T08:54:25;97945.13;;;21.94
15360;BMP280;7779;49.596;11.070;2023-08-31T08:56:51;97949.34;;;21.91
15360;BMP280;7779;49.596;11.070;2023-08-31T08:59:17;97955.28;;;21.87
15360;BMP280;7779;49.596;11.070;2023-08-31T09:01:45;97944.19;;;21.84
15360;BMP280;7779;49.596;11.070;2023-08-31T09:04:11;97961.19;;;21.82
15360;BMP280;7779;49.596;11.070;2023-08-31T09:06:38;97955.19;;;21.77
15360;BMP280;7779;49.596;11.070;2023-08-31T09:09:04;97954.31;;;21.73
15360;BMP280;7779;49.596;11.070;2023-08-31T09:11:30;97957.69;;;21.65
15360;BMP280;7779;49.596;11.070;2023-08-31T09:13:57;97949.13;;;21.56
15360;BMP280;7779;49.596;11.070;2023-08-31T09:16:32;97955.84;;;21.48
15360;BMP280;7779;49.596;11.070;2023-08-31T09:18:59;97956.63;;;21.39
15360;BMP280;7779;49.596;11.070;2023-08-31T09:21:36;97954.03;;;21.38
15360;BMP280;7779;49.596;11.070;2023-08-31T09:24:01;97958.34;;;21.42
15360;BMP280;7779;49.596;11.070;2023-08-31T09:26:28;97949.91;;;21.47
15360;BMP280;7779;49.596;11.070;2023-08-31T09:28:53;97951.59;;;21.50
15360;BMP280;7779;49.596;11.070;2023-08-31T09:31:19;97949.13;;;21.56
15360;BMP280;7779;49.596;11.070;2023-08-31T09:33:51;97951.72;;;21.63
15360;BMP280;7779;49.596;11.070;2023-08-31T09:36:17;97957.69;;;21.69
15360;BMP280;7779;49.596;11.070;2023-08-31T09:38:45;97953.50;;;21.76
15360;BMP280;7779;49.596;11.070;2023-08-31T09:41:11;97959.50;;;21.79
15360;BMP280;7779;49.596;11.070;2023-08-31T09:43:37;97956.97;;;21.81
15360;BMP280;7779;49.596;11.070;2023-08-31T09:46:04;97961.22;;;21.83
15360;BMP280;7779;49.596;11.070;2023-08-31T09:48:31;97962.94;;;21.87
15360;BMP280;7779;49.596;11.070;2023-08-31T09:50:57;97960.41;;;21.92
15360;BMP280;7779;49.596;11.070;2023-08-31T09:53:31;97963.00;;;21.96
15360;BMP280;7779;49.596;11.070;2023-08-31T09:55:57;97962.13;;;21.98
15360;BMP280;7779;49.596;11.070;2023-08-31T09:58:23;97963.00;;;22.02
15360;BMP280;7779;49.596;11.070;2023-08-31T10:00:51;97962.19;;;22.03
15360;BMP280;7779;49.596;11.070;2023-08-31T10:03:18;97955.41;;;22.06
15360;BMP280;7779;49.596;11.070;2023-08-31T10:05:47;97966.53;;;22.16
15360;BMP280;7779;49.596;11.070;2023-08-31T10:08:14;97962.31;;;22.25
15360;BMP280;7779;49.596;11.070;2023-08-31T10:10:41;97958.13;;;22.37
15360;BMP280;7779;49.596;11.070;2023-08-31T10:13:07;97955.63;;;22.48
15360;BMP280;7779;49.596;11.070;2023-08-31T10:15:35;97964.16;;;22.54
15360;BMP280;7779;49.596;11.070;2023-08-31T10:18:06;97967.59;;;22.56
15360;BMP280;7779;49.596;11.070;2023-08-31T10:20:33;97964.16;;;22.54
15360;BMP280;7779;49.596;11.070;2023-08-31T10:23:06;97958.19;;;22.52
15360;BMP280;7779;49.596;11.070;2023-08-31T10:28:26;97970.91;;;22.40
15360;BMP280;7779;49.596;11.070;2023-08-31T10:31:10;97969.16;;;22.32
15360;BMP280;7779;49.596;11.070;2023-08-31T10:36:15;97977.63;;;22.19
15360;BMP280;7779;49.596;11.070;2023-08-31T10:38:45;97976.78;;;22.20
15360;BMP280;7779;49.596;11.070;2023-08-31T10:43:50;97970.00;;;22.33
15360;BMP280;7779;49.596;11.070;2023-08-31T10:46:31;97960.69;;;22.39
15360;BMP280;7779;49.596;11.070;2023-08-31T10:51:41;97967.56;;;22.52
15360;BMP280;7779;49.596;11.070;2023-08-31T10:54:20;97970.97;;;22.57
15360;BMP280;7779;49.596;11.070;2023-08-31T10:57:03;97969.25;;;22.56
15360;BMP280;7779;49.596;11.070;2023-08-31T10:59:53;97974.38;;;22.51
15360;BMP280;7779;49.596;11.070;2023-08-31T11:05:14;97959.91;;;22.47
15360;BMP280;7779;49.596;11.070;2023-08-31T11:07:42;97970.09;;;22.49
15360;BMP280;7779;49.596;11.070;2023-08-31T11:12:40;97963.31;;;22.55
15360;BMP280;7779;49.596;11.070;2023-08-31T11:15:07;97969.31;;;22.62
15360;BMP280;7779;49.596;11.070;2023-08-31T11:17:34;97971.03;;;22.70
15360;BMP280;7779;49.596;11.070;2023-08-31T11:20:01;97972.75;;;22.77
15360;BMP280;7779;49.596;11.070;2023-08-31T11:22:31;97961.69;;;22.81
15360;BMP280;7779;49.596;11.070;2023-08-31T11:24:58;97969.38;;;22.84
15360;BMP280;7779;49.596;11.070;2023-08-31T11:27:25;97975.34;;;22.86
15360;BMP280;7779;49.596;11.070;2023-08-31T11:29:50;97975.31;;;22.83
15360;BMP280;7779;49.596;11.070;2023-08-31T11:32:16;97985.53;;;22.80
15360;BMP280;7779;49.596;11.070;2023-08-31T11:34:44;97984.69;;;22.76
15360;BMP280;7779;49.596;11.070;2023-08-31T11:37:13;97990.63;;;22.77
15360;BMP280;7779;49.596;11.070;2023-08-31T11:39:50;97976.19;;;22.82
15360;BMP280;7779;49.596;11.070;2023-08-31T11:42:19;97980.50;;;22.89
15360;BMP280;7779;49.596;11.070;2023-08-31T11:44:48;97983.91;;;22.97
15360;BMP280;7779;49.596;11.070;2023-08-31T11:47:15;97983.06;;;23.04
15360;BMP280;7779;49.596;11.070;2023-08-31T11:49:42;97986.50;;;23.13
15360;BMP280;7779;49.596;11.070;2023-08-31T11:52:11;97989.06;;;23.20
15360;BMP280;7779;49.596;11.070;2023-08-31T11:54:42;97978.84;;;23.23
15360;BMP280;7779;49.596;11.070;2023-08-31T11:57:10;97985.66;;;23.29
15360;BMP280;7779;49.596;11.070;2023-08-31T11:59:37;97978.00;;;23.30
15360;BMP280;7779;49.596;11.070;2023-08-31T12:02:06;97985.69;;;23.30
15360;BMP280;7779;49.596;11.070;2023-08-31T12:04:41;97984.81;;;23.34
15360;BMP280;7779;49.596;11.070;2023-08-31T12:07:08;97975.47;;;23.39
15360;BMP280;7779;49.596;11.070;2023-08-31T12:09:35;97989.97;;;23.46
15360;BMP280;7779;49.596;11.070;2023-08-31T12:12:01;97981.44;;;23.50
15360;BMP280;7779;49.596;11.070;2023-08-31T12:14:27;97981.41;;;23.53
15360;BMP280;7779;49.596;11.070;2023-08-31T12:17:06;97987.38;;;23.56
15360;BMP280;7779;49.596;11.070;2023-08-31T12:19:33;97980.59;;;23.60
15360;BMP280;7779;49.596;11.070;2023-08-31T12:22:01;97989.13;;;23.62
15360;BMP280;7779;49.596;11.070;2023-08-31T12:24:27;97989.13;;;23.65
15360;BMP280;7779;49.596;11.070;2023-08-31T12:26:53;97991.66;;;23.69
15360;BMP280;7779;49.596;11.070;2023-08-31T12:29:22;97980.59;;;23.75
15360;BMP280;7779;49.596;11.070;2023-08-31T12:31:49;97984.84;;;23.82
15360;BMP280;7779;49.596;11.070;2023-08-31T12:34:16;97979.72;;;23.89
15360;BMP280;7779;49.596;11.070;2023-08-31T12:36:42;97985.66;;;24.00
15360;BMP280;7779;49.596;11.070;2023-08-31T12:39:08;97985.69;;;24.07
15360;BMP280;7779;49.596;11.070;2023-08-31T12:41:39;97989.06;;;24.15
15360;BMP280;7779;49.596;11.070;2023-08-31T12:44:07;97987.34;;;24.20
15360;BMP280;7779;49.596;11.070;2023-08-31T12:46:33;97987.31;;;24.23
15360;BMP280;7779;49.596;11.070;2023-08-31T12:49:03;97988.16;;;24.25
15360;BMP280;7779;49.596;11.070;2023-08-31T12:51:32;97996.72;;;24.24
15360;BMP280;7779;49.596;11.070;2023-08-31T12:53:58;97992.44;;;24.23
15360;BMP280;7779;49.596;11.070;2023-08-31T12:56:24;98001.84;;;24.23
15360;BMP280;7779;49.596;11.070;2023-08-31T12:58:51;97989.91;;;24.19
15360;BMP280;7779;49.596;11.070;2023-08-31T13:01:19;97994.19;;;24.15
15360;BMP280;7779;49.596;11.070;2023-08-31T13:03:46;97994.19;;;24.09
15360;BMP280;7779;49.596;11.070;2023-08-31T13:06:14;98000.19;;;24.02
15360;BMP280;7779;49.596;11.070;2023-08-31T13:08:40;98000.19;;;23.96
15360;BMP280;7779;49.596;11.070;2023-08-31T13:11:05;98002.75;;;23.96
15360;BMP280;7779;49.596;11.070;2023-08-31T13:13:32;98006.16;;;23.98
15360;BMP280;7779;49.596;11.070;2023-08-31T13:15:58;97996.78;;;24.02
15360;BMP280;7779;49.596;11.070;2023-08-31T13:18:23;97989.06;;;24.06
15360;BMP280;7779;49.596;11.070;2023-08-31T13:20:53;97997.59;;;24.11
15360;BMP280;7779;49.596;11.070;2023-08-31T13:23:20;97987.34;;;24.14
15360;BMP280;7779;49.596;11.070;2023-08-31T13:25:46;97984.78;;;24.20
15360;BMP280;7779;49.596;11.070;2023-08-31T13:28:13;97989.88;;;24.26
15360;BMP280;7779;49.596;11.070;2023-08-31T13:30:39;97985.66;;;24.31
15360;BMP280;7779;49.596;11.070;2023-08-31T13:33:06;97993.28;;;24.41
15360;BMP280;7779;49.596;11.070;2023-08-31T13:35:33;97978.75;;;24.48
15360;BMP280;7779;49.596;11.070;2023-08-31T13:37:58;97984.72;;;24.50
15360;BMP280;7779;49.596;11.070;2023-08-31T13:40:24;97980.47;;;24.49
15360;BMP280;7779;49.596;11.070;2023-08-31T13:42:55;97977.03;;;24.47
15360;BMP280;7779;49.596;11.070;2023-08-31T13:45:27;97974.47;;;24.48
15360;BMP280;7779;49.596;11.070;2023-08-31T13:47:53;97980.44;;;24.58
15360;BMP280;7779;49.596;11.070;2023-08-31T13:50:19;97987.22;;;24.68
15360;BMP280;7779;49.596;11.070;2023-08-31T13:52:45;97982.91;;;24.74
15360;BMP280;7779;49.596;11.070;2023-08-31T13:55:11;97981.19;;;24.77
15360;BMP280;7779;49.596;11.070;2023-08-31T13:57:40;97975.19;;;24.81
15360;BMP280;7779;49.596;11.070;2023-08-31T14:00:07;97971.75;;;24.85
15360;BMP280;7779;49.596;11.070;2023-08-31T14:02:36;97978.56;;;24.88
15360;BMP280;7779;49.596;11.070;2023-08-31T14:05:03;97970.88;;;24.88
15360;BMP280;7779;49.596;11.070;2023-08-31T14:07:29;97966.59;;;24.91
15360;BMP280;7779;49.596;11.070;2023-08-31T14:09:55;97968.28;;;24.98
15360;BMP280;7779;49.596;11.070;2023-08-31T14:12:21;97965.69;;;25.06
15360;BMP280;7779;49.596;11.070;2023-08-31T14:14:47;97964.00;;;25.05
15360;BMP280;7779;49.596;11.070;2023-08-31T14:17:13;97970.00;;;24.99
15360;BMP280;7779;49.596;11.070;2023-08-31T14:19:39;97969.19;;;24.94
15360;BMP280;7779;49.596;11.070;2023-08-31T14:22:05;97961.50;;;24.88
15360;BMP280;7779;49.596;11.070;2023-08-31T14:24:31;97954.69;;;24.81
15360;BMP280;7779;49.596;11.070;2023-08-31T14:26:57;97962.38;;;24.77